createdAt,value
2018-08-09T00:00:02.998Z,21.7
2018-08-09T00:15:02.577Z,21.6
2018-08-09T00:30:03.014Z,21.1
2018-08-09T00:45:02.389Z,20.9
2018-08-09T01:00:02.803Z,20.4
2018-08-09T01:15:03.102Z,20.5
2018-08-09T01:30:02.792Z,20.1
2018-08-09T01:50:12.827Z,19.9
2018-08-09T02:00:03.508Z,19.6
2018-08-09T02:15:03.076Z,19.7
2018-08-09T02:30:02.571Z,19.4
2018-08-09T02:45:02.914Z,19.1
2018-08-09T03:00:03.218Z,19
2018-08-09T03:15:02.584Z,18.8
2018-08-09T03:30:02.971Z,18.9
2018-08-09T03:45:02.331Z,18.8
2018-08-09T04:00:02.661Z,18.7
2018-08-09T04:15:02.984Z,18.7
2018-08-09T04:30:02.415Z,18.7
2018-08-09T04:45:02.744Z,18.9
2018-08-09T05:00:03.083Z,18.9
2018-08-09T05:15:02.428Z,19.2
2018-08-09T05:30:02.815Z,19.6
2018-08-09T05:45:03.134Z,19.8
2018-08-09T06:00:02.419Z,20.2
2018-08-09T06:15:02.725Z,20.7
2018-08-09T06:30:02.878Z,21.1
2018-08-09T06:45:03.216Z,21.4
2018-08-09T07:00:02.535Z,21.8
2018-08-09T07:15:03.013Z,22.1
2018-08-09T07:30:02.410Z,23.1
2018-08-09T07:45:02.702Z,24.1
2018-08-09T08:00:03.061Z,23.9
2018-08-09T08:15:02.380Z,25.4
2018-08-09T08:30:02.780Z,26.9
2018-08-09T08:45:03.426Z,28.1
2018-08-09T09:00:04.084Z,28.9
2018-08-09T09:15:02.538Z,29.7
2018-08-09T09:30:03.216Z,31
2018-08-09T09:45:02.544Z,31.4
2018-08-09T10:00:02.905Z,31.8
2018-08-09T10:15:03.414Z,31.9
2018-08-09T10:30:03.103Z,32.3
2018-08-09T10:45:02.450Z,33.4
2018-08-09T11:00:02.768Z,33.8
2018-08-09T11:15:03.147Z,33.6
2018-08-09T11:30:02.559Z,33.1
2018-08-09T11:45:02.873Z,33.1
2018-08-09T12:00:03.202Z,35
2018-08-09T12:15:02.600Z,35.2
2018-08-09T12:30:03.059Z,35.2
2018-08-09T12:45:02.388Z,35
2018-08-09T13:00:03.053Z,35.5
2018-08-09T13:15:02.747Z,36.4
2018-08-09T13:30:03.184Z,35.8
2018-08-09T13:45:02.472Z,36.6
2018-08-09T14:00:03.050Z,35.8
2018-08-09T14:15:02.401Z,36.6
2018-08-09T14:30:02.836Z,35.6
2018-08-09T14:45:03.174Z,35.9
2018-08-09T15:00:02.627Z,34
2018-08-09T15:15:03.217Z,33.8
2018-08-09T15:30:02.579Z,34.8
2018-08-09T15:45:02.956Z,33.1
2018-08-09T16:00:02.438Z,32.5
2018-08-09T16:15:02.794Z,31.2
2018-08-09T16:30:03.296Z,30.4
2018-08-09T16:45:02.699Z,30.1
2018-08-09T17:00:02.998Z,29.6
2018-08-09T17:15:02.289Z,29.3
2018-08-09T17:30:02.676Z,29.4
2018-08-09T17:45:03.028Z,29.3
2018-08-09T18:00:02.365Z,28.1
2018-08-09T18:15:02.697Z,28.2
2018-08-09T18:30:03.078Z,26.9
2018-08-09T18:45:02.387Z,28.2
2018-08-09T19:00:02.715Z,26.2
2018-08-09T19:15:03.110Z,22
2018-08-09T19:30:02.570Z,21.7
2018-08-09T19:45:02.884Z,21.5
2018-08-09T20:00:03.241Z,21.6
2018-08-09T20:15:02.573Z,21.6
2018-08-09T20:30:03.019Z,21.8
2018-08-09T20:45:02.316Z,22
2018-08-09T21:00:02.663Z,21.8
2018-08-09T21:15:02.977Z,21.3
2018-08-09T21:30:02.391Z,20.9
2018-08-09T21:45:02.702Z,21.1
2018-08-09T22:00:03.025Z,20.8
2018-08-09T22:15:02.421Z,20.6
2018-08-09T22:30:03.076Z,20.8
2018-08-09T22:45:02.603Z,20.8
2018-08-09T23:00:03.167Z,20.9
2018-08-09T23:15:02.536Z,20.9
2018-08-09T23:30:02.944Z,20.6
2018-08-09T23:45:03.276Z,20.9
